Down Up Stop Top
)

AZZ544
There are no active watches, warnings or advisories

Record high temperature 118.9°F Record low temperature 26.4°F Record high gust 53.0 mph Record high average 33.0 mph Record daily rain 1.93 in. Record low windchill 23.9°F Record high barometer 30.437 in. Record low barometer 28.833 in.
Daily high pressure 29.584 in. Daily low pressure 29.440 in. Daily low windchill 49.5°F Daily high heat index 58.4°F Daily high gust speed 10.4 mph WSW Daily high average speed 7.0 mph N
Cactus Wren, Phoenix, AZ 85051
LAST READING AT TIME: 7:20 AM DATE: January 01 2023, time of next update: 7:30 am
Current Weatherovercast/Night Current Temperature 58.4°F (14.7°C), Apparent temp 57.3°F
Maximum Temperature (since midnight)58.4°F at: 7:16 AM Minimum Temperature (since midnight)49.5°F at: 1:12 AM
Average windspeed (ten minute)2.8 mph Wind Direction (ten minute)WSW (247°)
Windchill Temperature 58.4°F Maximum Gust (last hour)10.4 mph at: 6:38 AM
Maximum Gust (since midnight)10.4 mph at: 6:39 AM Maximum 1 minute average (since midnight)7.0 mph at: 7:02 AM
Rainfall (last hour)0.00 in. (0.0 mm) Rainfall (since midnight)0.00 in. (0.0 mm) ---
Rainfall This month 0.00 in. (0.0 mm) Rainfall To date this year 7.57 in. (192.3 mm)
Maximum rain per minute (last hour)0.00 in/min Maximum rain per hour (last 6 hours)0.00 in/hour
Yesterdays rainfall 0.00 in DewPoint 47.9°F (Wet Bulb :53.0°F )
Humidity 68 %, Humidex 59.8°F Barometer corrected to msl29.458 in. (997.6 hPa)
Pressure change +0.01 in. (last hour) Trend (last hour)STEADY
Pressure change (last 12 hours)-0.19 in Pressure change (last 6 hours)-0.09 in
Current solar 0 W/mē Current UV0.0
Maximum solar (since midnight) 0 W/mē Maximum UV (since midnight)0.0
Current 00:00 hours of sunshine today, current sky: Night time/Dry/overcast
Sunshine hours for the year: 2394:57 hrs Sunshine hours for the month: 136:01 hrs
Current evapotranspiration 0.01 inches per day. Yesterday's reading 0.04
last update: %time% %date%, next update: %timeofnextupdate%


5 day forecast

High/Low Barometer

barometer

24 hour Graph

24 hour

48 hour Graph

48 hour

78 hour Graph

72 hour

Realtime Grahp1

realtime graph

Realtime Grahp2

realtime2

Yesterday Grahp1

Yesterday

Yesterday Grahp2

Yesterday2

Yesterday Grahp3

Yesterday3

Moon Details

moon detail

moondetail 2


Weather report/warning/Metars

Expires:202301012300;;893553
FPUS55 KPSR 011101
ZFPPSR

Zone Forecast Product for Southwest Arizona/Southeast California
National Weather Service Phoenix AZ
400 AM MST Sun Jan 1 2023

This is an automatically generated product that provides average
values for large geographical areas and may not be representative
of the exact location that you are interested in. For a more site
specific forecast, please visit weather.gov/phoenix and either
(1) Select a location from the dropdown menu above the map or 
(2) Click a location on the map. You can refine your selection by
clicking on the map displayed on the resulting page.


AZZ537-540-542>544-546-548-550-551-012300-
Northwest Valley-Buckeye/Avondale-Deer Valley-Central Phoenix-
North Phoenix/Glendale-Scottsdale/Paradise Valley-East Valley-
South Mountain/Ahwatukee-Southeast Valley/Queen Creek-
Including the cities of Circle City, Surprise, Wittmann, Beardsley, 
Sun City West, Avondale, Cashion, Goodyear, Liberty, Peoria, Phoenix, 
Paradise Valley, Mesa, Chandler, Tempe, Gilbert, Sun Lakes, 
and Queen Creek
400 AM MST Sun Jan 1 2023

.TODAY...Showers and a slight chance of thunderstorms. Breezy and
cooler. Highs 57 to 62. South wind 10 to 20 mph in the morning
becoming southwest 15 to 25 mph in the afternoon. Chance of rain near
100 percent. Rainfall up to three quarters of an inch possible,
except locally higher in thunderstorms. 
.TONIGHT...Considerable cloudiness. A chance of showers and a slight
chance of thunderstorms in the evening, then a chance of showers
after midnight. Colder. Lows 39 to 46. Southwest wind 5 to 15 mph.
Chance of rain 50 percent. Rainfall around a tenth of an inch, except
locally higher in thunderstorms. 
.MONDAY...Partly sunny. A chance of showers in the morning. Highs
54 to 58. Southwest wind 5 to 10 mph. Chance of rain 30 percent. 
.MONDAY NIGHT...Partly cloudy with a slight chance of showers in the
evening, then mostly cloudy with a chance of showers after midnight.
Lows 42 to 47. Southeast wind around 5 mph. Chance of rain
30 percent. 
.TUESDAY...Mostly cloudy. A chance of showers in the morning, then a
slight chance of showers in the afternoon. Highs 53 to 57. Southeast
wind around 5 mph. Chance of rain 40 percent. 
.TUESDAY NIGHT...Considerable cloudiness. A 10 percent chance of
showers after midnight. Lows 42 to 47. 
.WEDNESDAY...Partly cloudy. Not as cool. Highs 57 to 62. 
.WEDNESDAY NIGHT...Partly cloudy. Lows in the lower to mid 40s. 
.THURSDAY...Partly cloudy. Not as cool. Highs 62 to 67. 
.THURSDAY NIGHT...Partly cloudy with a 10 percent chance of showers.
Lows 43 to 48. 
.FRIDAY...Partly sunny. Highs 61 to 66. 
.FRIDAY NIGHT...Partly cloudy. Lows 40 to 45. 
.SATURDAY...Partly sunny. Highs 60 to 66. 

$$


Phoenix, Phoenix Sky Harbor International Airport, AZ, United States (KPHX) 33-26-03N 112-03-04W 336M
Jan 01, 2023 - 07:51 AM EST / 2023.01.01 1251 UTC
Wind: from the E (100 degrees) at 8 MPH (7 KT):0
Visibility: 10 mile(s):0
Sky conditions: overcast
Temperature: 54.0 F (12.2 C)
Dew Point: 48.9 F (9.4 C)
Relative Humidity: 82%
Pressure (altimeter): 29.73 in. Hg (1006 hPa)
ob: KPHX 011251Z 10007KT 10SM FEW070 BKN130 BKN190 OVC250 12/09 A2973 RMK AO2 SLP059 T01220094 
cycle: 13
SAN LUIS VALLEY REGIONAL, CO, United States (KALS) 37-26N 105-52W 2299M
Jan 01, 2023 - 07:52 AM EST / 2023.01.01 1252 UTC
Wind: from the SSE (150 degrees) at 14 MPH (12 KT):0
Visibility: 10 mile(s):0
Sky conditions: clear
Temperature: 30.0 F (-1.1 C)
Windchill: 19 F (-7 C):1
Dew Point: 27.0 F (-2.8 C)
Relative Humidity: 88%
Pressure (altimeter): 29.89 in. Hg (1012 hPa)
ob: KALS 011252Z AUTO 15012KT 10SM CLR M01/M03 A2989 RMK AO2 SLP112 T10111028
cycle: 13
Davis-Monthan Air Force Base, AZ, United States (KDMA) 32-10N 110-53W
Jan 01, 2023 - 07:55 AM EST / 2023.01.01 1255 UTC
Wind: from the E (100 degrees) at 10 MPH (9 KT):0
Visibility: 10 mile(s):0
Sky conditions: overcast
Temperature: 58.6 F (14.8 C)
Dew Point: 37.9 F (3.3 C)
Relative Humidity: 45%
Pressure (altimeter): 29.83 in. Hg (1010 hPa)
ob: KDMA 011255Z AUTO 10009KT 10SM OVC170 15/03 A2983 RMK AO2 SLP119 T01480033 
cycle: 13
FLAGSTAFF PULLIAM AIRPORT, AZ, United States (KFLG) 35-08N 111-40W 2134M
Jan 01, 2023 - 07:57 AM EST / 2023.01.01 1257 UTC
Wind: from the SSW (210 degrees) at 20 MPH (17 KT) gusting to 26 MPH (23 KT):0
Visibility: 10 mile(s):0
Sky conditions: overcast
Temperature: 39.0 F (3.9 C)
Dew Point: 36.0 F (2.2 C)
Relative Humidity: 88%
Pressure (altimeter): 29.82 in. Hg (1009 hPa)
ob: KFLG 011257Z AUTO 21017G23KT 10SM BKN008 OVC015 04/02 A2982 RMK AO2 PK WND 22031/1159 CIG 007V010 SLP061 T00390022
cycle: 13
Mesa, Williams Gateway Airport, AZ, United States (KIWA) 33-19N 111-39W
Jan 01, 2023 - 07:47 AM EST / 2023.01.01 1247 UTC
Wind: from the SSE (160 degrees) at 6 MPH (5 KT):0
Visibility: 10 mile(s):0
Sky conditions: clear
Temperature: 53 F (12 C)
Dew Point: 48 F (9 C)
Relative Humidity: 81%
Pressure (altimeter): 29.78 in. Hg (1008 hPa)
ob: KIWA 011247Z 16005KT 10SM CLR 12/09 A2978 
cycle: 13
PHOENIX-DEER VALLEY MUN, AZ, United States (KDVT) 33-41N 112-04W 443M
Jan 01, 2023 - 07:53 AM EST / 2023.01.01 1253 UTC
Wind: from the ESE (120 degrees) at 6 MPH (5 KT):0
Visibility: 10 mile(s):0
Sky conditions: overcast
Temperature: 55.0 F (12.8 C)
Dew Point: 48.0 F (8.9 C)
Relative Humidity: 77%
Pressure (altimeter): 29.75 in. Hg (1007 hPa)
ob: KDVT 011253Z AUTO 12005KT 10SM SCT070 OVC110 13/09 A2975 RMK AO2 SLP064 T01280089
cycle: 13
Luke Air Force Base / Phoenix, AZ, United States (KLUF) 33-32N 112-23W 332M
Jan 01, 2023 - 07:55 AM EST / 2023.01.01 1255 UTC
Wind: Calm:0
Visibility: 10 mile(s):0
Sky conditions: overcast
Temperature: 52.5 F (11.4 C)
Dew Point: 52.2 F (11.2 C)
Relative Humidity: 98%
Pressure (altimeter): 29.73 in. Hg (1006 hPa)
ob: KLUF 011255Z AUTO 00000KT 10SM OVC110 11/11 A2973 RMK AO2 SLP065 T01140112
cycle: 13
SCOTTSDALE AIRPORT, AZ, United States (KSDL) 33-37N 111-55W 447M
Jan 01, 2023 - 07:53 AM EST / 2023.01.01 1253 UTC
Wind: Calm:0
Visibility: 10 mile(s):0
Sky conditions: mostly clear
Temperature: 53.1 F (11.7 C)
Dew Point: 48.0 F (8.9 C)
Relative Humidity: 82%
Pressure (altimeter): 29.77 in. Hg (1008 hPa)
ob: KSDL 011253Z 00000KT 10SM FEW110 12/09 A2977 RMK AO2 SLP067 T01170089
cycle: 13
Chandler, Chandler Municipal Airport, AZ, United States (KCHD) 33-16-09N 111-48-40W
Jan 01, 2023 - 07:54 AM EST / 2023.01.01 1254 UTC
Wind: from the E (080 degrees) at 3 MPH (3 KT):0
Visibility: 10 mile(s):0
Sky conditions: mostly cloudy
Temperature: 55 F (13 C)
Dew Point: 48 F (9 C)
Relative Humidity: 76%
Pressure (altimeter): 29.76 in. Hg (1007 hPa)
ob: KCHD 011254Z 08003KT 10SM BKN110 13/09 A2976 
cycle: 13
Goodyear Municipal, AZ, United States (KGYR) 33-25N 112-23W
Jan 01, 2023 - 07:47 AM EST / 2023.01.01 1247 UTC
Wind: Variable at 5 MPH (4 KT):0
Visibility: 10 mile(s):0
Sky conditions: overcast
Temperature: 53 F (12 C)
Dew Point: 50 F (10 C)
Relative Humidity: 87%
Pressure (altimeter): 29.76 in. Hg (1007 hPa)
ob: KGYR 011247Z VRB04KT 10SM FEW050 SCT080 BKN110 OVC150 12/10 A2976 RMK FIRST 
cycle: 13
Mesa / Falcon Field, AZ, United States (KFFZ) 33-28N 111-44W
Dec 31, 2022 - 09:54 AM EST / 2022.12.31 1454 UTC
Wind: Calm:0
Visibility: 10 mile(s):0
Sky conditions: overcast
Temperature: 51.1 F (10.6 C)
Dew Point: 48.0 F (8.9 C)
Relative Humidity: 89%
Pressure (altimeter): 30.04 in. Hg (1017 hPa)
Pressure tendency: 0.01 inches (0.2 hPa) higher than three hours ago
ob: KFFZ 311454Z 00000KT 10SM FEW032 OVC049 11/09 A3004 RMK AO2 SLP162 T01060089 51002
cycle: 15
Glendale, Glendale Municipal Airport, AZ, United States (KGEU) 33-31-38N 112-17-43W
Dec 31, 2022 - 07:58 PM EST / 2023.01.01 0058 UTC
Wind: from the NNE (030 degrees) at 6 MPH (5 KT):0
Visibility: 10 mile(s):0
Sky conditions: mostly cloudy
Temperature: 60 F (16 C)
Dew Point: 50 F (10 C)
Relative Humidity: 67%
Pressure (altimeter): 29.93 in. Hg (1013 hPa)
ob: KGEU 010058Z 03005KT 10SM FEW050 SCT100 BKN200 16/10 A2993 
cycle: 1

Date: 1/1/2023
Sunrise at:
07:34 am

Sunset at:
05:30 pm

Moonrise at:
01:50 pm 01/1/23

Moonset at:
02:50 am 01/1/23

First Quarter  December 30 2022
Full moon  January 6 2023
Last QuarterJanuary 15 2023
New moon January 21 2023
Moon age: 9 days,13 hours,53 minutes,73%
Hours of possible daylight today was 09:56:00